Strona główna
METAR-TAF:

METAR-TAF

Lotnisko :

Pattani, Tajlandia

Szerokość geograficzna: 06-47-08N, Długość geograficzna: 101-09-13E, wysokość: 2 m

METAR: brakujący

czas: 23:02 (16:02 UTC)

Prognoza

Raport powstał 5 godziny i 2 minut temu, godzina 11:00 UTC
Prognoza ważna od 26 godzina 12 UTC do 27 godzina 12 UTC
Wiatr 5 kt od północny wschód
Widzialność 10 km lub więcej
Mało chmury na wysokości 2000 ft

TAF: VTSK 261100Z 2612/2712 04005KT 9999 FEW020

Obserwacja i prognoza pogody dla ponad 4000 lotnisk (raport METAR i TAF).

Dostępne stacje oznaczono żółtymi i czerwonymi punktami na mapie.

Najedź kursorem aby zobaczyć nazwę stacji.

Kliknij aby zobaczyć obserwacje i prognozy pogody.

Aby zmienić mapę: kliknij na zielony przycisk z czarnym krzyżykiem, aby powiększyć; na zielony przycisk z myślnikiem, aby pomniejszyć; na zielone strzałki, aby przejść do map sąsiednich.


METAR-TAF: